createdAt,value
2022-12-09T00:01:17.276Z,100291.84
2022-12-09T00:03:44.069Z,100294.38
2022-12-09T00:06:15.517Z,100293.31
2022-12-09T00:08:42.352Z,100290.59
2022-12-09T00:11:09.344Z,100285.97
2022-12-09T00:13:36.220Z,100291.47
2022-12-09T00:16:14.387Z,100286.38
2022-12-09T00:18:41.954Z,100288.94
2022-12-09T00:21:22.659Z,100285.63
2022-12-09T00:23:50.180Z,100285.47
2022-12-09T00:26:18.801Z,100274.22
2022-12-09T00:28:45.486Z,100280.22
2022-12-09T00:31:21.596Z,100274.94
2022-12-09T00:33:48.105Z,100281.69
2022-12-09T00:36:17.457Z,100270.78
2022-12-09T00:38:44.182Z,100276.47
2022-12-09T00:41:11.656Z,100276.06
2022-12-09T00:43:38.181Z,100271.84
2022-12-09T00:46:05.011Z,100261.94
2022-12-09T00:48:34.289Z,100263.00
2022-12-09T00:51:01.749Z,100257.75
2022-12-09T00:53:28.563Z,100258.94
2022-12-09T00:55:55.100Z,100254.25
2022-12-09T00:58:21.760Z,100255.72
2022-12-09T01:00:48.261Z,100257.56
2022-12-09T01:03:16.912Z,100251.09
2022-12-09T01:05:43.781Z,100246.91
2022-12-09T01:08:11.654Z,100250.47
2022-12-09T01:10:39.845Z,100250.00
2022-12-09T01:13:06.723Z,100255.53
2022-12-09T01:15:33.631Z,100252.22
2022-12-09T01:18:00.243Z,100244.00
2022-12-09T01:20:26.699Z,100247.31
2022-12-09T01:22:53.205Z,100239.06
2022-12-09T01:25:19.712Z,100242.94
2022-12-09T01:27:46.318Z,100241.72
2022-12-09T01:30:13.995Z,100241.72
2022-12-09T01:32:41.611Z,100238.72
2022-12-09T01:35:08.797Z,100225.78
2022-12-09T01:37:36.971Z,100226.38
2022-12-09T01:40:09.481Z,100225.22
2022-12-09T01:42:36.170Z,100224.47
2022-12-09T01:45:25.010Z,100218.63
2022-12-09T01:47:56.483Z,100219.69
2022-12-09T01:50:23.537Z,100217.63
2022-12-09T01:52:50.573Z,100218.81
2022-12-09T01:55:17.773Z,100214.16
2022-12-09T01:57:46.081Z,100202.56
2022-12-09T02:00:13.815Z,100195.81
2022-12-09T02:02:42.595Z,100191.00
2022-12-09T02:05:10.562Z,100182.34
2022-12-09T02:07:37.386Z,100186.88
2022-12-09T02:10:08.870Z,100186.88
2022-12-09T02:12:46.631Z,100196.03
2022-12-09T02:15:16.840Z,100188.56
2022-12-09T02:17:53.297Z,100191.28
2022-12-09T02:20:30.549Z,100192.31
2022-12-09T02:23:11.393Z,100184.81
2022-12-09T02:25:37.793Z,100177.94
2022-12-09T02:28:35.072Z,100174.63
2022-12-09T02:31:23.712Z,100174.63
2022-12-09T02:33:57.488Z,100177.94
2022-12-09T02:36:29.052Z,100181.84
2022-12-09T02:38:57.826Z,100178.88
2022-12-09T02:41:27.969Z,100176.91
2022-12-09T02:44:02.633Z,100174.50
2022-12-09T02:46:30.213Z,100171.81
2022-12-09T02:48:59.291Z,100160.69
2022-12-09T02:51:30.910Z,100144.97
2022-12-09T02:53:59.697Z,100131.50
2022-12-09T02:56:27.921Z,100125.63
2022-12-09T02:58:54.653Z,100129.06
2022-12-09T03:01:23.151Z,100123.97
2022-12-09T03:03:53.430Z,100120.09
2022-12-09T03:06:21.270Z,100117.69
2022-12-09T03:08:56.328Z,100113.19
2022-12-09T03:11:24.967Z,100117.09
2022-12-09T03:14:03.559Z,100106.25
2022-12-09T03:16:34.941Z,100097.44
2022-12-09T03:19:12.180Z,100088.84
2022-12-09T03:21:44.210Z,100077.94
2022-12-09T03:24:15.384Z,100075.66
2022-12-09T03:26:43.207Z,100069.81
2022-12-09T03:29:24.992Z,100066.06
2022-12-09T03:31:54.999Z,100069.97
2022-12-09T03:34:26.281Z,100060.66
2022-12-09T03:36:53.871Z,100056.63
2022-12-09T03:39:27.936Z,100052.56
2022-12-09T03:42:01.655Z,100044.78
2022-12-09T03:44:46.359Z,100042.66
2022-12-09T03:47:13.089Z,100041.47
2022-12-09T03:49:40.386Z,100043.88
2022-12-09T03:52:31.463Z,100034.25
2022-12-09T03:55:04.413Z,100036.34
2022-12-09T03:57:34.659Z,100034.84
2022-12-09T04:00:02.317Z,100018.50
2022-12-09T04:02:29.390Z,100018.06
2022-12-09T04:04:56.213Z,100021.81
2022-12-09T04:07:22.996Z,100028.69
2022-12-09T04:09:49.874Z,100026.91
2022-12-09T04:12:16.468Z,100029.47
2022-12-09T04:14:43.231Z,100021.81
2022-12-09T04:17:11.229Z,100022.28
2022-12-09T04:19:38.199Z,100025.44
2022-12-09T04:22:04.819Z,100019.28
2022-12-09T04:24:31.335Z,100017.78
2022-12-09T04:26:58.069Z,100012.97
2022-12-09T04:29:24.514Z,100008.19
2022-12-09T04:31:51.147Z,99993.94
2022-12-09T04:34:18.053Z,99999.50
2022-12-09T04:36:44.547Z,100007.59
2022-12-09T04:39:11.309Z,100005.03
2022-12-09T04:41:38.189Z,100011.47
2022-12-09T04:44:05.563Z,100016.88
2022-12-09T04:46:32.561Z,100012.53
2022-12-09T04:48:59.014Z,100007.59
2022-12-09T04:51:25.463Z,100003.66
2022-12-09T04:53:51.989Z,99998.28
2022-12-09T04:56:20.342Z,99996.94
2022-12-09T04:58:49.167Z,100000.22
2022-12-09T05:01:22.594Z,99990.34
2022-12-09T05:03:54.130Z,99985.69
2022-12-09T05:06:22.105Z,99985.38
2022-12-09T05:08:49.235Z,99977.88
2022-12-09T05:11:17.855Z,99971.56
2022-12-09T05:13:44.818Z,99962.59
2022-12-09T05:16:16.954Z,99971.59
2022-12-09T05:18:45.142Z,99962.44
2022-12-09T05:21:15.147Z,99953.28
2022-12-09T05:23:42.541Z,99945.78
2022-12-09T05:26:12.676Z,99938.59
2022-12-09T05:28:39.559Z,99937.56
2022-12-09T05:31:09.348Z,99937.41
2022-12-09T05:33:36.222Z,99932.44
2022-12-09T05:36:03.730Z,99920.31
2022-12-09T05:38:30.676Z,99925.41
2022-12-09T05:41:00.735Z,99919.41
2022-12-09T05:43:27.672Z,99911.59
2022-12-09T05:45:54.296Z,99913.59
2022-12-09T05:48:21.786Z,99910.28
2022-12-09T05:51:03.469Z,99910.09
2022-12-09T05:53:30.937Z,99905.63
2022-12-09T05:55:57.592Z,99906.38
2022-12-09T05:58:24.610Z,99895.75
2022-12-09T06:00:51.513Z,99895.13
2022-12-09T06:03:18.284Z,99897.81
2022-12-09T06:05:45.280Z,99899.63
2022-12-09T06:08:12.694Z,99891.53
2022-12-09T06:10:40.658Z,99897.53
2022-12-09T06:13:08.647Z,99894.81
2022-12-09T06:15:36.047Z,99890.50
2022-12-09T06:18:03.276Z,99887.47
2022-12-09T06:20:30.570Z,99884.03
2022-12-09T06:22:57.572Z,99883.75
2022-12-09T06:25:24.175Z,99884.91
2022-12-09T06:27:53.908Z,99881.19
2022-12-09T06:30:21.021Z,99890.94
2022-12-09T06:32:47.756Z,99899.03
2022-12-09T06:35:15.429Z,99901.44
2022-12-09T06:37:42.441Z,99902.47
2022-12-09T06:40:10.139Z,99905.16
2022-12-09T06:42:37.107Z,99902.75
2022-12-09T06:45:04.780Z,99893.63
2022-12-09T06:47:31.545Z,99890.00
2022-12-09T06:50:06.701Z,99882.38
2022-12-09T06:52:34.314Z,99876.97
2022-12-09T06:55:01.446Z,99864.06
2022-12-09T06:57:28.152Z,99856.59
2022-12-09T06:59:55.030Z,99872.50
2022-12-09T07:02:23.034Z,99875.66
2022-12-09T07:04:54.533Z,99875.16
2022-12-09T07:07:21.840Z,99872.63
2022-12-09T07:09:48.884Z,99869.78
2022-12-09T07:12:16.034Z,99867.56
2022-12-09T07:14:42.557Z,99869.19
2022-12-09T07:17:16.614Z,99869.94
2022-12-09T07:19:43.375Z,99876.81
2022-12-09T07:22:10.271Z,99882.25
2022-12-09T07:24:38.349Z,99870.56
2022-12-09T07:27:10.729Z,99879.22
2022-12-09T07:29:39.720Z,99881.31
2022-12-09T07:32:09.255Z,99890.00
2022-12-09T07:34:37.218Z,99866.19
2022-12-09T07:37:03.986Z,99866.19
2022-12-09T07:39:31.024Z,99873.53
2022-12-09T07:41:58.393Z,99876.97
2022-12-09T07:44:28.306Z,99870.56
2022-12-09T07:46:55.874Z,99849.22
2022-12-09T07:49:22.653Z,99862.13
2022-12-09T07:51:49.660Z,99855.25
2022-12-09T07:54:19.039Z,99857.03
2022-12-09T07:56:46.294Z,99862.13
2022-12-09T07:59:14.626Z,99869.94
2022-12-09T08:01:41.523Z,99871.88
2022-12-09T08:04:08.285Z,99869.47
2022-12-09T08:06:35.829Z,99862.25
2022-12-09T08:09:06.106Z,99861.97
2022-12-09T08:11:34.281Z,99862.41
2022-12-09T08:14:08.951Z,99843.25
2022-12-09T08:16:38.444Z,99836.03
2022-12-09T08:19:05.368Z,99835.75
2022-12-09T08:21:33.586Z,99831.41
2022-12-09T08:24:02.535Z,99841.75
2022-12-09T08:26:31.449Z,99862.41
2022-12-09T08:28:59.095Z,99863.63
2022-12-09T08:31:27.501Z,99870.94
2022-12-09T08:33:54.930Z,99878.59
2022-12-09T08:36:25.529Z,99884.91
2022-12-09T08:38:52.984Z,99888.50
2022-12-09T08:41:22.945Z,99883.25
2022-12-09T08:43:49.971Z,99890.94
2022-12-09T08:46:17.041Z,99888.69
2022-12-09T08:48:43.722Z,99870.84
2022-12-09T08:51:12.245Z,99866.03
2022-12-09T08:53:39.791Z,99853.00
2022-12-09T08:56:14.778Z,99843.25
2022-12-09T08:58:42.700Z,99847.88
2022-12-09T09:01:18.032Z,99840.53
2022-12-09T09:03:45.931Z,99849.22
2022-12-09T09:06:14.301Z,99846.06
2022-12-09T09:08:41.697Z,99835.75
2022-12-09T09:11:10.920Z,99837.69
2022-12-09T09:13:40.818Z,99845.78
2022-12-09T09:16:13.312Z,99836.66
2022-12-09T09:18:40.978Z,99846.84
2022-12-09T09:21:09.799Z,99844.13
2022-12-09T09:23:36.747Z,99839.66
2022-12-09T09:26:04.151Z,99835.75
2022-12-09T09:28:31.838Z,99824.41
2022-12-09T09:31:04.247Z,99815.69
2022-12-09T09:33:31.018Z,99811.78
2022-12-09T09:36:06.873Z,99803.13
2022-12-09T09:38:36.734Z,99796.53
2022-12-09T09:41:16.669Z,99797.41
2022-12-09T09:43:43.885Z,99788.28
2022-12-09T09:46:20.858Z,99784.22
2022-12-09T09:48:48.571Z,99783.03
2022-12-09T09:51:20.570Z,99782.41
2022-12-09T09:53:50.535Z,99775.31
2022-12-09T09:56:26.929Z,99771.59
2022-12-09T09:59:11.946Z,99773.81
2022-12-09T10:01:39.757Z,99770.09
2022-12-09T10:04:35.594Z,99761.94
2022-12-09T10:07:07.953Z,99742.75
2022-12-09T10:09:47.014Z,99727.03
2022-12-09T10:12:25.827Z,99724.22
2022-12-09T10:15:08.814Z,99717.28
2022-12-09T10:17:50.132Z,99721.50
2022-12-09T10:20:24.458Z,99710.81
2022-12-09T10:23:02.241Z,99712.59
2022-12-09T10:25:35.602Z,99717.97
2022-12-09T10:28:14.197Z,99717.69
2022-12-09T10:30:44.676Z,99719.63
2022-12-09T10:33:16.690Z,99712.31
2022-12-09T10:35:43.417Z,99698.94
2022-12-09T10:38:18.973Z,99698.63
2022-12-09T10:40:57.067Z,99693.53
2022-12-09T10:43:37.578Z,99687.81
2022-12-09T10:46:20.499Z,99676.00
2022-12-09T10:48:48.549Z,99659.66
2022-12-09T10:51:22.225Z,99657.56
2022-12-09T10:53:55.222Z,99656.06
2022-12-09T10:56:33.477Z,99661.44
2022-12-09T10:59:17.905Z,99654.81
2022-12-09T11:01:56.717Z,99662.94
2022-12-09T11:04:23.988Z,99649.28
2022-12-09T11:06:57.410Z,99644.34
2022-12-09T11:09:34.645Z,99647.94
2022-12-09T11:12:04.242Z,99651.53
2022-12-09T11:14:42.102Z,99645.25
2022-12-09T11:17:15.753Z,99644.38
2022-12-09T11:19:43.752Z,99653.25
2022-12-09T11:22:28.359Z,99657.59
2022-12-09T11:25:15.809Z,99636.31
2022-12-09T11:27:55.538Z,99625.53
2022-12-09T11:30:35.035Z,99604.84
2022-12-09T11:33:14.353Z,99609.31
2022-12-09T11:35:44.201Z,99605.50
2022-12-09T11:38:29.619Z,99601.94
2022-12-09T11:41:13.411Z,99599.03
2022-12-09T11:43:48.668Z,99592.59
2022-12-09T11:46:17.991Z,99585.72
2022-12-09T11:48:53.755Z,99588.06
2022-12-09T11:51:30.179Z,99578.56
2022-12-09T11:54:13.204Z,99580.22
2022-12-09T11:56:40.985Z,99588.63
2022-12-09T11:59:23.975Z,99593.41
2022-12-09T12:02:05.935Z,99579.47
2022-12-09T12:04:55.987Z,99576.38
2022-12-09T12:07:35.363Z,99571.06
2022-12-09T12:10:03.262Z,99561.16
2022-12-09T12:12:41.205Z,99560.41
2022-12-09T12:15:16.483Z,99567.28
2022-12-09T12:17:49.607Z,99566.88
2022-12-09T12:20:16.580Z,99552.94
2022-12-09T12:22:56.543Z,99546.81
2022-12-09T12:25:50.627Z,99564.94
2022-12-09T12:28:29.237Z,99555.00
2022-12-09T12:31:12.234Z,99523.94
2022-12-09T12:34:24.168Z,99529.53
2022-12-09T12:37:18.918Z,99539.50
2022-12-09T12:39:57.930Z,99539.72
2022-12-09T12:43:03.127Z,99534.78
2022-12-09T12:45:57.156Z,99531.34
2022-12-09T12:48:53.046Z,99529.03
2022-12-09T12:51:25.641Z,99524.41
2022-12-09T12:54:20.246Z,99520.38
2022-12-09T12:56:58.676Z,99518.44
2022-12-09T12:59:57.151Z,99515.75
2022-12-09T13:02:42.782Z,99514.84
2022-12-09T13:05:15.688Z,99524.47
2022-12-09T13:07:52.580Z,99512.50
2022-12-09T13:10:36.013Z,99515.81
2022-12-09T13:13:05.966Z,99506.09
2022-12-09T13:15:43.485Z,99500.78
2022-12-09T13:18:19.309Z,99518.50
2022-12-09T13:20:50.244Z,99530.97
2022-12-09T13:23:46.175Z,99520.63
2022-12-09T13:26:33.182Z,99517.91
2022-12-09T13:29:15.477Z,99518.22
2022-12-09T13:32:15.681Z,99502.94
2022-12-09T13:34:46.917Z,99499.75
2022-12-09T13:37:32.090Z,99496.59
2022-12-09T13:39:58.802Z,99500.84
2022-12-09T13:42:47.003Z,99494.75
2022-12-09T13:45:20.032Z,99498.34
2022-12-09T13:47:47.474Z,99495.75
2022-12-09T13:50:39.431Z,99494.25
2022-12-09T13:53:05.833Z,99481.28
2022-12-09T13:55:38.751Z,99478.00
2022-12-09T13:58:43.863Z,99470.63
2022-12-09T14:01:13.395Z,99467.31
2022-12-09T14:04:06.545Z,99472.97
2022-12-09T14:06:45.293Z,99463.41
2022-12-09T14:09:33.708Z,99463.25
2022-12-09T14:12:03.344Z,99461.00
2022-12-09T14:14:29.718Z,99462.41
2022-12-09T14:17:16.370Z,99461.41
2022-12-09T14:19:42.899Z,99462.50
2022-12-09T14:22:21.647Z,99460.44
2022-12-09T14:24:49.853Z,99462.72
2022-12-09T14:27:20.686Z,99459.41
2022-12-09T14:29:52.026Z,99457.53
2022-12-09T14:32:50.041Z,99452.16
2022-12-09T14:35:41.817Z,99454.44
2022-12-09T14:38:27.117Z,99459.97
2022-12-09T14:40:59.350Z,99468.06
2022-12-09T14:43:50.648Z,99459.41
2022-12-09T14:46:28.519Z,99466.56
2022-12-09T14:49:03.212Z,99468.69
2022-12-09T14:51:50.007Z,99470.00
2022-12-09T14:54:22.042Z,99464.84
2022-12-09T14:56:51.835Z,99470.69
2022-12-09T14:59:23.634Z,99465.59
2022-12-09T15:01:59.292Z,99456.69
2022-12-09T15:04:33.471Z,99454.03
2022-12-09T15:07:08.443Z,99459.31
2022-12-09T15:09:35.225Z,99463.81
2022-12-09T15:12:07.017Z,99459.75
2022-12-09T15:14:33.523Z,99461.53
2022-12-09T15:17:00.060Z,99462.41
2022-12-09T15:22:23.723Z,99461.69
2022-12-09T15:24:51.713Z,99462.41
2022-12-09T15:27:21.314Z,99460.00
2022-12-09T15:29:48.433Z,99462.72
2022-12-09T15:32:28.365Z,99465.53
2022-12-09T15:34:55.031Z,99467.19
2022-12-09T15:37:29.042Z,99471.09
2022-12-09T15:40:02.657Z,99457.31
2022-12-09T15:42:33.519Z,99469.66
2022-12-09T15:45:21.409Z,99472.34
2022-12-09T15:47:55.295Z,99476.66
2022-12-09T15:50:24.175Z,99479.78
2022-12-09T15:53:15.109Z,99485.03
2022-12-09T15:55:50.502Z,99485.16
2022-12-09T15:58:25.600Z,99473.91
2022-12-09T16:00:53.721Z,99478.47
2022-12-09T16:03:24.345Z,99475.63
2022-12-09T16:05:56.731Z,99481.81
2022-12-09T16:08:30.460Z,99472.25
2022-12-09T16:10:58.484Z,99476.81
2022-12-09T16:13:26.019Z,99466.31
2022-12-09T16:15:58.061Z,99467.66
2022-12-09T16:18:26.099Z,99459.88
2022-12-09T16:21:20.312Z,99458.06
2022-12-09T16:23:50.825Z,99452.69
2022-12-09T16:26:24.994Z,99447.31
2022-12-09T16:29:00.828Z,99443.38
2022-12-09T16:31:27.949Z,99447.59
2022-12-09T16:33:54.837Z,99456.00
2022-12-09T16:36:29.307Z,99457.16
2022-12-09T16:39:08.037Z,99452.38
2022-12-09T16:41:52.574Z,99452.38
2022-12-09T16:44:38.356Z,99450.41
2022-12-09T16:47:12.382Z,99448.00
2022-12-09T16:49:40.097Z,99452.69
2022-12-09T16:52:11.373Z,99442.50
2022-12-09T16:54:38.304Z,99441.34
2022-12-09T16:57:04.752Z,99439.38
2022-12-09T16:59:37.608Z,99450.66
2022-12-09T17:02:19.912Z,99448.88
2022-12-09T17:04:47.928Z,99449.16
2022-12-09T17:07:14.436Z,99453.22
2022-12-09T17:09:40.858Z,99458.13
2022-12-09T17:12:07.575Z,99449.94
2022-12-09T17:14:33.973Z,99443.44
2022-12-09T17:17:01.025Z,99448.28
2022-12-09T17:19:27.452Z,99446.91
2022-12-09T17:21:53.967Z,99450.81
2022-12-09T17:24:20.847Z,99445.78
2022-12-09T17:26:47.259Z,99441.72
2022-12-09T17:29:13.783Z,99440.81
2022-12-09T17:31:40.278Z,99445.44
2022-12-09T17:34:06.768Z,99444.72
2022-12-09T17:36:33.207Z,99449.56
2022-12-09T17:39:03.359Z,99443.78
2022-12-09T17:41:29.941Z,99449.94
2022-12-09T17:43:57.806Z,99444.63
2022-12-09T17:46:24.616Z,99445.41
2022-12-09T17:48:51.176Z,99443.91
2022-12-09T17:51:17.935Z,99442.56
2022-12-09T17:53:45.652Z,99443.53
2022-12-09T17:56:15.098Z,99448.03
2022-12-09T17:58:42.316Z,99444.31
2022-12-09T18:01:20.656Z,99451.94
2022-12-09T18:03:56.584Z,99459.94
2022-12-09T18:06:25.624Z,99450.03
2022-12-09T18:08:52.806Z,99451.06
2022-12-09T18:11:19.260Z,99451.81
2022-12-09T18:13:46.629Z,99444.19
2022-12-09T18:16:13.888Z,99446.72
2022-12-09T18:18:41.555Z,99453.75
2022-12-09T18:21:15.091Z,99458.09
2022-12-09T18:23:42.393Z,99456.16
2022-12-09T18:26:10.896Z,99463.53
2022-12-09T18:28:37.824Z,99456.91
2022-12-09T18:31:09.106Z,99465.91
2022-12-09T18:33:37.637Z,99469.94
2022-12-09T18:36:15.536Z,99469.94
2022-12-09T18:38:42.667Z,99472.31
2022-12-09T18:41:13.926Z,99466.53
2022-12-09T18:43:42.812Z,99474.16
2022-12-09T18:46:21.381Z,99466.38
2022-12-09T18:49:10.038Z,99471.78
2022-12-09T18:51:37.167Z,99469.78
2022-12-09T18:54:04.384Z,99469.72
2022-12-09T18:56:31.294Z,99469.47
2022-12-09T18:59:06.336Z,99478.19
2022-12-09T19:01:34.203Z,99472.31
2022-12-09T19:04:02.680Z,99471.44
2022-12-09T19:06:32.758Z,99476.81
2022-12-09T19:09:02.257Z,99478.34
2022-12-09T19:11:31.675Z,99475.91
2022-12-09T19:13:58.737Z,99477.41
2022-12-09T19:16:26.845Z,99483.88
2022-12-09T19:18:53.795Z,99481.81
2022-12-09T19:21:22.099Z,99481.03
2022-12-09T19:23:49.239Z,99482.09
2022-12-09T19:26:20.322Z,99488.38
2022-12-09T19:28:55.338Z,99479.84
2022-12-09T19:31:35.930Z,99488.03
2022-12-09T19:34:05.879Z,99492.38
2022-12-09T19:36:34.190Z,99491.34
2022-12-09T19:39:02.171Z,99490.88
2022-12-09T19:41:28.668Z,99493.13
2022-12-09T19:43:56.605Z,99487.47
2022-12-09T19:46:23.494Z,99487.31
2022-12-09T19:48:50.003Z,99486.44
2022-12-09T19:51:18.233Z,99484.94
2022-12-09T19:53:45.151Z,99491.34
2022-12-09T19:56:14.943Z,99488.53
2022-12-09T19:58:42.721Z,99489.56
2022-12-09T20:01:14.065Z,99489.09
2022-12-09T20:03:42.143Z,99495.72
2022-12-09T20:06:10.417Z,99488.22
2022-12-09T20:08:36.949Z,99496.16
2022-12-09T20:11:05.302Z,99493.63
2022-12-09T20:13:32.306Z,99491.63
2022-12-09T20:16:03.829Z,99493.88
2022-12-09T20:18:30.232Z,99480.16
2022-12-09T20:21:01.367Z,99490.66
2022-12-09T20:23:28.206Z,99489.09
2022-12-09T20:25:54.742Z,99491.34
2022-12-09T20:28:21.167Z,99489.69
2022-12-09T20:30:47.688Z,99483.69
2022-12-09T20:33:14.127Z,99487.94
2022-12-09T20:35:40.553Z,99489.25
2022-12-09T20:38:06.976Z,99488.53
2022-12-09T20:40:40.512Z,99488.53
2022-12-09T20:43:07.275Z,99485.06
2022-12-09T20:45:33.699Z,99481.34
2022-12-09T20:48:00.125Z,99471.78
2022-12-09T20:50:26.547Z,99480.56
2022-12-09T20:52:52.993Z,99481.97
2022-12-09T20:55:21.908Z,99491.84
2022-12-09T20:57:48.341Z,99488.84
2022-12-09T21:00:15.055Z,99484.09
2022-12-09T21:02:41.496Z,99492.44
2022-12-09T21:05:08.528Z,99492.44
2022-12-09T21:07:35.190Z,99486.47
2022-12-09T21:10:01.645Z,99483.78
2022-12-09T21:12:28.048Z,99487.09
2022-12-09T21:14:54.594Z,99475.72
2022-12-09T21:17:20.994Z,99482.28
2022-12-09T21:19:47.404Z,99492.44
2022-12-09T21:22:13.808Z,99486.75
2022-12-09T21:24:40.250Z,99496.03
2022-12-09T21:27:06.631Z,99497.28
2022-12-09T21:29:33.067Z,99500.25
2022-12-09T21:32:01.357Z,99498.88
2022-12-09T21:34:28.032Z,99500.25
2022-12-09T21:36:54.475Z,99501.09
2022-12-09T21:39:21.024Z,99502.28
2022-12-09T21:41:47.575Z,99499.91
2022-12-09T21:44:17.517Z,99497.19
2022-12-09T21:46:44.594Z,99491.22
2022-12-09T21:49:11.841Z,99493.03
2022-12-09T21:51:38.466Z,99495.84
2022-12-09T21:54:04.997Z,99498.13
2022-12-09T21:56:35.003Z,99504.38
2022-12-09T21:59:02.966Z,99503.81
2022-12-09T22:01:32.976Z,99503.50
2022-12-09T22:04:01.427Z,99515.19
2022-12-09T22:06:28.855Z,99506.81
2022-12-09T22:08:57.296Z,99505.16
2022-12-09T22:11:28.777Z,99503.22
2022-12-09T22:14:00.651Z,99510.72
2022-12-09T22:16:30.286Z,99507.00
2022-12-09T22:18:58.861Z,99508.16
2022-12-09T22:21:28.418Z,99509.53
2022-12-09T22:24:00.185Z,99514.28
2022-12-09T22:26:27.228Z,99509.94
2022-12-09T22:28:54.683Z,99509.44
2022-12-09T22:31:27.019Z,99509.75
2022-12-09T22:33:56.175Z,99496.84
2022-12-09T22:36:23.245Z,99504.06
2022-12-09T22:38:50.649Z,99508.91
2022-12-09T22:41:23.366Z,99508.91
2022-12-09T22:43:50.723Z,99500.94
2022-12-09T22:46:20.659Z,99509.94
2022-12-09T22:48:48.367Z,99512.19
2022-12-09T22:51:21.168Z,99501.72
2022-12-09T22:53:49.672Z,99501.09
2022-12-09T22:56:16.612Z,99488.63
2022-12-09T22:58:43.260Z,99490.56
2022-12-09T23:01:14.904Z,99482.81
2022-12-09T23:03:41.749Z,99476.25
2022-12-09T23:06:08.891Z,99480.31
2022-12-09T23:08:37.553Z,99475.06
2022-12-09T23:11:06.866Z,99478.81
2022-12-09T23:13:40.735Z,99479.22
2022-12-09T23:16:13.153Z,99488.78
2022-12-09T23:18:40.005Z,99486.25
2022-12-09T23:21:10.781Z,99488.94
2022-12-09T23:23:37.668Z,99483.88
2022-12-09T23:26:06.526Z,99481.34
2022-12-09T23:28:37.289Z,99466.19
2022-12-09T23:31:05.878Z,99457.97
2022-12-09T23:33:34.350Z,99463.78
2022-12-09T23:36:09.579Z,99469.97
2022-12-09T23:38:36.330Z,99471.28
2022-12-09T23:41:03.328Z,99473.41
2022-12-09T23:43:31.275Z,99480.16
2022-12-09T23:46:19.825Z,99463.31
2022-12-09T23:48:48.081Z,99468.69
2022-12-09T23:51:20.835Z,99467.66
2022-12-09T23:53:49.203Z,99466.56
2022-12-09T23:56:20.745Z,99458.81
2022-12-09T23:58:47.663Z,99471.72
